Time;durP1;ratioP1;P1;durP2;ratioP2;P2;SDS_P1;SDS_P2;PMS_P1;PMS_P2;Temp;Humidity;BMP_temperature;BMP_pressure;BME280_temperature;BME280_humidity;BME280_pressure;Samples;Min_cycle;Max_cycle;Signal;HPM_P1;HPM_P2
2023/06/07 00:01:21;;;;;;;6.47;2.80;;;;;;;16.93;28.34;95783.69;4923981;29;20267;-66
2023/06/07 00:03:47;;;;;;;5.72;2.80;;;;;;;16.88;28.31;95775.44;4910219;29;20036;-66
2023/06/07 00:06:13;;;;;;;3.38;2.80;;;;;;;16.45;29.04;95775.00;4924460;29;20024;-66
2023/06/07 00:08:39;;;;;;;4.35;3.00;;;;;;;16.41;28.80;95783.72;4923153;29;20115;-66
2023/06/07 00:11:05;;;;;;;3.95;3.00;;;;;;;16.52;28.74;95781.19;4922716;29;20162;-66
2023/06/07 00:13:30;;;;;;;6.18;3.00;;;;;;;16.49;28.42;95786.97;4924351;29;20024;-66
2023/06/07 00:15:56;;;;;;;5.00;2.70;;;;;;;16.49;28.08;95772.72;4922847;29;20521;-66
2023/06/07 00:18:21;;;;;;;4.78;2.65;;;;;;;16.67;27.76;95780.09;4923475;29;20495;-66
2023/06/07 00:20:49;;;;;;;4.63;2.75;;;;;;;16.77;27.88;95780.44;4924039;29;20078;-66
2023/06/07 00:23:15;;;;;;;5.78;2.63;;;;;;;16.88;27.66;95786.19;4923665;29;20040;-66
2023/06/07 00:25:40;;;;;;;3.80;2.80;;;;;;;16.84;27.90;95784.97;4924037;29;20084;-66
2023/06/07 00:28:06;;;;;;;4.88;2.60;;;;;;;16.86;27.62;95782.91;4928847;29;20117;-66
2023/06/07 00:30:31;;;;;;;2.80;2.60;;;;;;;16.94;27.93;95777.28;4922772;29;20027;-66
2023/06/07 00:32:56;;;;;;;4.03;2.50;;;;;;;16.99;27.36;95790.06;4924127;29;20344;-66
2023/06/07 00:35:22;;;;;;;3.42;2.65;;;;;;;16.98;27.58;95772.28;4922861;29;20099;-66
2023/06/07 00:37:47;;;;;;;5.72;2.80;;;;;;;16.97;27.62;95776.88;4924062;29;20043;-66
2023/06/07 00:40:13;;;;;;;3.05;2.50;;;;;;;17.01;27.85;95774.56;4923370;29;20032;-66
2023/06/07 00:42:38;;;;;;;3.08;2.53;;;;;;;16.98;27.50;95767.75;4923519;29;20036;-66
2023/06/07 00:45:04;;;;;;;3.80;2.40;;;;;;;17.02;27.98;95768.13;4922952;29;20087;-66
2023/06/07 00:47:29;;;;;;;4.82;2.80;;;;;;;17.02;28.29;95765.44;4923027;29;20095;-66
2023/06/07 00:49:55;;;;;;;3.60;2.40;;;;;;;16.95;28.71;95767.34;4924150;29;20028;-66
2023/06/07 00:52:21;;;;;;;5.18;2.58;;;;;;;16.90;28.62;95763.44;4899707;29;20040;-66
2023/06/07 00:54:46;;;;;;;3.22;2.45;;;;;;;16.94;28.71;95757.63;4926952;29;20422;-66
2023/06/07 00:57:12;;;;;;;6.20;2.80;;;;;;;16.95;29.02;95761.97;4923433;29;20261;-66
2023/06/07 00:59:37;;;;;;;2.83;2.60;;;;;;;16.94;29.22;95761.16;4901221;29;20043;-66
2023/06/07 01:02:03;;;;;;;5.72;2.53;;;;;;;16.91;29.51;95756.19;4924119;29;20513;-65
2023/06/07 01:04:29;;;;;;;4.28;2.50;;;;;;;16.90;29.05;95762.63;4921801;29;20043;-65
2023/06/07 01:06:54;;;;;;;4.10;2.70;;;;;;;16.89;29.84;95759.09;4922353;29;20035;-65
2023/06/07 01:09:20;;;;;;;4.30;2.65;;;;;;;16.87;29.29;95766.53;4922330;29;20040;-65
2023/06/07 01:11:48;;;;;;;5.10;2.72;;;;;;;16.84;30.18;95758.94;4922890;29;20094;-65
2023/06/07 01:14:13;;;;;;;;;;;;;;;16.79;30.10;95758.72;4898373;29;20031;-65
2023/06/07 01:16:39;;;;;;;3.73;2.50;;;;;;;16.81;29.74;95755.84;4927571;29;20579;-65
2023/06/07 01:19:05;;;;;;;3.92;2.63;;;;;;;16.89;29.46;95752.88;4915831;29;20036;-65
2023/06/07 01:21:32;;;;;;;6.45;2.78;;;;;;;16.89;29.22;95753.72;4916208;29;20032;-65
2023/06/07 01:23:59;;;;;;;4.50;2.63;;;;;;;16.93;29.41;95743.34;4916111;29;20091;-65
2023/06/07 01:26:26;;;;;;;4.47;2.63;;;;;;;16.92;29.95;95746.28;4922743;29;20148;-65
2023/06/07 01:28:52;;;;;;;4.47;2.60;;;;;;;16.86;29.06;95746.09;4898183;29;20430;-65
2023/06/07 01:31:17;;;;;;;3.30;2.75;;;;;;;16.86;29.38;95748.78;4914846;29;20055;-65
2023/06/07 01:33:43;;;;;;;3.75;2.63;;;;;;;16.85;29.90;95747.13;4909910;29;20020;-65
2023/06/07 01:36:08;;;;;;;4.07;2.50;;;;;;;16.87;29.82;95745.03;4911385;29;20245;-65
2023/06/07 01:38:34;;;;;;;3.90;2.67;;;;;;;16.83;29.68;95743.00;4906850;29;20031;-65
2023/06/07 01:40:59;;;;;;;5.40;2.70;;;;;;;16.88;29.54;95740.50;4892558;29;20110;-65
2023/06/07 01:43:25;;;;;;;4.07;3.08;;;;;;;16.94;29.43;95739.66;4893684;29;20101;-65
2023/06/07 01:45:50;;;;;;;7.80;3.08;;;;;;;16.92;30.99;95735.53;4907962;29;20083;-65
2023/06/07 01:48:16;;;;;;;7.15;3.00;;;;;;;16.73;30.68;95724.66;4916668;29;20035;-65
2023/06/07 01:50:41;;;;;;;5.32;2.97;;;;;;;16.72;30.93;95721.13;4918566;29;20044;-65
2023/06/07 01:53:07;;;;;;;4.82;3.17;;;;;;;16.63;30.88;95727.81;4923171;29;20038;-65
2023/06/07 01:55:33;;;;;;;5.15;3.10;;;;;;;16.53;31.80;95717.53;4922847;29;20099;-65
2023/06/07 01:57:58;;;;;;;3.72;2.90;;;;;;;16.74;31.08;95724.44;4922293;29;20099;-65
2023/06/07 02:00:31;;;;;;;5.80;3.00;;;;;;;16.64;31.56;95729.47;4924681;29;20110;-65
2023/06/07 02:02:59;;;;;;;4.78;2.88;;;;;;;16.72;31.60;95726.50;4904595;29;20035;-65
2023/06/07 02:05:28;;;;;;;6.63;3.20;;;;;;;16.71;31.37;95732.09;4919151;29;20103;-65
2023/06/07 02:07:54;;;;;;;9.15;3.15;;;;;;;16.62;30.95;95715.41;4925643;29;20032;-65
2023/06/07 02:10:20;;;;;;;6.20;3.28;;;;;;;16.47;30.95;95724.56;4926172;29;20031;-65
2023/06/07 02:12:46;;;;;;;3.97;3.10;;;;;;;16.41;30.94;95714.66;4925582;29;20042;-65
2023/06/07 02:15:11;;;;;;;4.25;3.10;;;;;;;16.50;31.05;95712.56;4919193;29;20031;-65
2023/06/07 02:18:01;;;;;;;5.43;2.80;;;;;;;16.54;31.88;95710.28;4926123;29;20051;-65
2023/06/07 02:20:30;;;;;;;3.58;2.78;;;;;;;16.62;31.73;95707.34;4926106;29;20039;-65
2023/06/07 02:22:56;;;;;;;4.18;2.67;;;;;;;16.70;31.90;95712.47;4922857;29;20052;-65
2023/06/07 02:25:22;;;;;;;6.13;2.92;;;;;;;16.72;31.44;95713.06;4925359;29;20040;-65
2023/06/07 02:27:47;;;;;;;4.78;2.80;;;;;;;16.77;31.82;95712.44;4925797;29;20042;-65
2023/06/07 02:30:13;;;;;;;6.88;2.88;;;;;;;16.72;31.64;95715.75;4926216;29;20074;-65
2023/06/07 02:32:38;;;;;;;3.42;2.92;;;;;;;16.71;31.73;95713.28;4925680;29;20061;-65
2023/06/07 02:35:07;;;;;;;3.47;2.85;;;;;;;16.69;31.82;95718.88;4925453;29;20044;-65
2023/06/07 02:37:32;;;;;;;4.10;3.05;;;;;;;16.63;31.73;95711.69;4925769;29;20055;-65
2023/06/07 02:39:58;;;;;;;7.28;3.13;;;;;;;16.63;32.67;95717.06;4925409;29;20114;-65
2023/06/07 02:42:23;;;;;;;5.28;3.13;;;;;;;16.57;32.27;95724.13;4925308;29;20034;-65
2023/06/07 02:44:48;;;;;;;4.13;3.00;;;;;;;16.61;32.20;95727.19;4925466;29;20032;-65
2023/06/07 02:47:14;;;;;;;5.22;3.08;;;;;;;16.61;32.28;95714.59;4925403;29;20494;-65
2023/06/07 02:49:39;;;;;;;4.00;2.90;;;;;;;16.64;32.42;95721.41;4925693;29;20059;-65
2023/06/07 02:52:06;;;;;;;5.78;3.22;;;;;;;16.61;33.04;95708.38;4925283;29;20031;-65
2023/06/07 02:54:34;;;;;;;3.70;3.00;;;;;;;16.63;33.31;95707.13;4925079;29;20424;-65
2023/06/07 02:57:00;;;;;;;5.63;3.20;;;;;;;16.64;32.82;95706.09;4925723;29;20035;-65
2023/06/07 02:59:26;;;;;;;4.10;2.83;;;;;;;16.62;31.57;95710.03;4925616;29;20103;-65
2023/06/07 03:01:52;;;;;;;5.60;3.00;;;;;;;16.64;31.28;95710.63;4924597;29;20127;-65
2023/06/07 03:04:18;;;;;;;6.28;3.08;;;;;;;16.53;31.91;95704.09;4924767;29;20039;-65
2023/06/07 03:06:47;;;;;;;5.82;3.65;;;;;;;16.48;32.43;95704.72;4924614;29;20491;-65
2023/06/07 03:09:14;;;;;;;5.78;3.10;;;;;;;16.52;32.19;95711.31;4925466;29;20027;-65
2023/06/07 03:11:39;;;;;;;5.55;3.65;;;;;;;16.44;33.93;95716.94;4924553;29;20119;-65
2023/06/07 03:14:04;;;;;;;3.92;3.30;;;;;;;16.33;33.47;95712.19;4924742;29;20506;-65
2023/06/07 03:16:30;;;;;;;3.53;2.97;;;;;;;16.37;33.00;95716.13;4924477;29;20534;-65
2023/06/07 03:18:55;;;;;;;5.35;3.17;;;;;;;16.25;33.12;95713.28;4924896;29;20044;-65
2023/06/07 03:21:21;;;;;;;4.20;3.40;;;;;;;16.16;33.61;95718.03;4924660;29;20035;-65
2023/06/07 03:23:46;;;;;;;6.57;3.30;;;;;;;16.22;34.20;95719.88;4924877;29;20055;-65
2023/06/07 03:26:11;;;;;;;5.28;3.40;;;;;;;16.25;33.42;95719.44;4925136;29;20042;-65
2023/06/07 03:28:37;;;;;;;5.25;3.25;;;;;;;16.26;33.61;95721.09;4924955;29;20577;-65
2023/06/07 03:31:03;;;;;;;4.95;3.40;;;;;;;16.31;33.04;95725.84;4924578;29;20031;-65
2023/06/07 03:33:28;;;;;;;4.97;3.65;;;;;;;16.15;33.42;95727.16;4925044;29;20027;-65
2023/06/07 03:35:53;;;;;;;7.10;3.60;;;;;;;16.05;34.19;95719.50;4923840;29;20031;-65
2023/06/07 03:38:19;;;;;;;10.57;3.97;;;;;;;15.88;34.56;95721.84;4924966;29;20360;-65
2023/06/07 03:40:44;;;;;;;6.07;3.45;;;;;;;15.99;34.15;95721.19;4924601;29;20087;-65
2023/06/07 03:43:10;;;;;;;9.07;4.07;;;;;;;15.97;34.84;95720.56;4924354;29;20058;-65
2023/06/07 03:45:35;;;;;;;6.38;3.50;;;;;;;15.64;34.87;95726.81;4924454;29;20233;-65
2023/06/07 03:48:00;;;;;;;7.15;3.50;;;;;;;15.70;34.47;95728.66;4924127;29;20107;-65
2023/06/07 03:50:26;;;;;;;4.07;3.15;;;;;;;15.86;33.67;95726.56;4924687;29;20039;-65
2023/06/07 03:52:51;;;;;;;6.55;3.53;;;;;;;15.99;33.79;95717.66;4924294;29;20039;-65
2023/06/07 03:55:19;;;;;;;5.82;3.30;;;;;;;16.18;33.62;95726.69;4924240;29;20058;-65
2023/06/07 03:57:46;;;;;;;6.47;3.28;;;;;;;16.29;33.62;95725.25;4925032;29;20478;-65
2023/06/07 04:00:14;;;;;;;7.05;3.70;;;;;;;16.24;33.31;95717.81;4923698;29;20054;-65
2023/06/07 04:02:41;;;;;;;9.07;3.70;;;;;;;16.30;33.65;95717.97;4923049;29;20039;-65
2023/06/07 04:05:07;;;;;;;6.43;3.17;;;;;;;16.21;33.81;95720.06;4923797;29;20459;-65
2023/06/07 04:07:32;;;;;;;6.72;3.15;;;;;;;16.31;33.66;95720.47;4916569;29;20032;-65
2023/06/07 04:09:57;;;;;;;4.40;3.10;;;;;;;16.46;33.82;95719.41;4924359;29;20240;-65
2023/06/07 04:12:23;;;;;;;5.35;3.17;;;;;;;16.51;33.73;95715.03;4923827;29;20087;-65
2023/06/07 04:14:48;;;;;;;5.75;3.22;;;;;;;16.59;34.35;95710.47;4923531;29;20035;-65
2023/06/07 04:17:13;;;;;;;5.20;3.42;;;;;;;16.60;34.92;95712.13;4923945;29;20066;-65
2023/06/07 04:19:39;;;;;;;6.53;3.55;;;;;;;16.64;34.55;95721.41;4923927;29;20036;-65
2023/06/07 04:22:05;;;;;;;6.32;3.50;;;;;;;16.65;34.43;95717.66;4923506;29;20257;-65
2023/06/07 04:24:31;;;;;;;7.75;3.50;;;;;;;16.67;34.76;95720.13;4923834;29;20032;-65
2023/06/07 04:26:57;;;;;;;4.70;3.40;;;;;;;16.73;34.39;95706.66;4923635;29;20078;-65
2023/06/07 04:29:25;;;;;;;7.40;3.50;;;;;;;16.83;34.67;95716.13;4924117;29;20039;-65
2023/06/07 04:31:52;;;;;;;5.38;3.20;;;;;;;16.88;34.51;95714.44;4923289;29;20055;-65
2023/06/07 04:34:21;;;;;;;5.55;3.40;;;;;;;16.98;34.21;95724.72;4923343;29;20032;-65
2023/06/07 04:36:49;;;;;;;6.63;3.80;;;;;;;17.08;34.43;95718.03;4914375;29;20031;-65
2023/06/07 04:39:14;;;;;;;6.30;3.40;;;;;;;17.18;33.94;95723.81;4923295;29;20118;-65
2023/06/07 04:41:40;;;;;;;4.88;2.97;;;;;;;17.09;33.88;95719.69;4923531;29;20028;-65
2023/06/07 04:44:05;;;;;;;6.15;3.42;;;;;;;17.09;34.31;95719.69;4911474;29;20079;-65
2023/06/07 04:46:31;;;;;;;4.72;3.13;;;;;;;17.00;34.42;95717.25;4923030;29;20035;-65
2023/06/07 04:48:57;;;;;;;6.22;3.60;;;;;;;17.07;35.01;95721.78;4923094;29;20032;-65
2023/06/07 04:51:25;;;;;;;4.43;3.20;;;;;;;17.12;34.34;95720.09;4923432;29;20126;-65
2023/06/07 04:53:58;;;;;;;7.40;3.40;;;;;;;17.15;34.50;95718.84;4923825;29;20114;-65
2023/06/07 04:56:27;;;;;;;6.78;3.70;;;;;;;17.12;34.41;95722.81;4922765;29;20031;-65
2023/06/07 04:58:53;;;;;;;5.80;3.30;;;;;;;17.15;34.31;95725.06;4923243;29;20032;-65
2023/06/07 05:01:18;;;;;;;4.45;2.95;;;;;;;17.25;34.31;95724.56;4922753;29;20110;-65
2023/06/07 05:03:44;;;;;;;6.07;3.40;;;;;;;17.24;34.17;95730.19;4922070;29;20044;-65
2023/06/07 05:06:10;;;;;;;6.10;3.40;;;;;;;17.34;34.13;95732.38;4923093;29;20491;-65
2023/06/07 05:08:36;;;;;;;6.72;3.78;;;;;;;17.34;34.52;95730.50;4922961;29;20039;-65
2023/06/07 05:11:02;;;;;;;5.07;3.50;;;;;;;17.30;34.70;95733.84;4922966;29;20046;-65
2023/06/07 05:13:27;;;;;;;6.97;3.70;;;;;;;17.00;35.06;95728.00;4922837;29;20051;-65
2023/06/07 05:15:53;;;;;;;6.88;3.60;;;;;;;17.14;34.81;95726.09;4922068;29;20099;-65
2023/06/07 05:18:19;;;;;;;7.90;4.13;;;;;;;17.18;34.86;95728.34;4922723;29;20039;-65
2023/06/07 05:20:48;;;;;;;6.15;3.45;;;;;;;17.19;34.14;95728.13;4922983;29;20040;-65
2023/06/07 05:23:17;;;;;;;8.32;3.95;;;;;;;17.24;35.19;95727.47;4922907;29;20119;-65
2023/06/07 05:25:43;;;;;;;6.55;3.75;;;;;;;17.29;34.87;95735.72;4923213;29;20060;-65
2023/06/07 05:28:09;;;;;;;9.30;4.10;;;;;;;17.33;34.80;95728.03;4922766;29;20051;-65
2023/06/07 05:30:34;;;;;;;6.72;3.50;;;;;;;17.44;34.99;95724.63;4922377;29;20067;-65
2023/06/07 05:33:00;;;;;;;5.50;3.88;;;;;;;17.57;34.52;95731.75;4922324;29;20032;-65
2023/06/07 05:35:25;;;;;;;9.50;4.18;;;;;;;17.71;34.26;95727.09;4924971;29;20046;-65
2023/06/07 05:37:51;;;;;;;9.43;3.70;;;;;;;17.56;35.24;95732.81;4917691;29;20086;-65
2023/06/07 05:40:18;;;;;;;6.60;3.85;;;;;;;17.84;35.18;95736.91;4926500;29;20044;-65
2023/06/07 05:42:44;;;;;;;7.75;3.95;;;;;;;17.89;34.46;95739.81;4926859;29;20410;-65
2023/06/07 05:45:10;;;;;;;10.63;4.07;;;;;;;18.06;34.77;95739.22;4926127;29;20296;-65
2023/06/07 05:47:35;;;;;;;6.97;3.75;;;;;;;18.18;33.89;95737.44;4926443;29;20372;-65
2023/06/07 05:50:01;;;;;;;5.63;3.70;;;;;;;18.23;33.92;95733.25;4926886;29;20032;-65
2023/06/07 05:52:26;;;;;;;9.38;3.90;;;;;;;18.12;34.57;95737.50;4925972;29;20586;-65
2023/06/07 05:54:54;;;;;;;7.28;4.00;;;;;;;18.23;34.40;95739.47;4926217;29;20032;-65
2023/06/07 05:57:19;;;;;;;;;;;;;;;18.29;33.95;95735.06;4927108;29;20122;-65
2023/06/07 05:59:45;;;;;;;12.00;4.13;;;;;;;18.42;33.78;95737.56;4926069;29;19914;-65
2023/06/07 06:02:10;;;;;;;8.35;3.47;;;;;;;18.58;34.13;95735.34;4926111;29;20640;-65
2023/06/07 06:04:36;;;;;;;6.10;3.53;;;;;;;18.71;33.36;95728.97;4925591;29;20054;-65
2023/06/07 06:07:02;;;;;;;5.00;3.70;;;;;;;18.84;33.27;95732.53;4925857;29;20036;-65
2023/06/07 06:09:28;;;;;;;6.05;4.00;;;;;;;19.00;32.21;95731.88;4926001;29;20526;-65
2023/06/07 06:11:55;;;;;;;7.75;3.83;;;;;;;19.20;32.74;95741.56;4926184;29;20050;-65
2023/06/07 06:14:21;;;;;;;8.95;3.80;;;;;;;19.11;32.50;95729.47;4924275;29;20038;-65
2023/06/07 06:16:46;;;;;;;8.50;3.88;;;;;;;18.87;31.62;95727.50;4925638;29;20047;-65
2023/06/07 06:19:12;;;;;;;6.20;3.45;;;;;;;19.15;32.00;95727.94;4926109;29;20419;-65
2023/06/07 06:21:37;;;;;;;6.63;3.63;;;;;;;19.48;32.26;95734.75;4925949;29;20020;-65
2023/06/07 06:24:03;;;;;;;6.57;3.55;;;;;;;19.70;32.02;95734.16;4925874;29;20055;-65
2023/06/07 06:26:29;;;;;;;6.65;3.83;;;;;;;19.76;31.02;95732.41;4925815;29;20039;-65
2023/06/07 06:28:54;;;;;;;9.98;4.18;;;;;;;19.77;31.62;95740.28;4925247;29;20035;-65
2023/06/07 06:31:20;;;;;;;6.70;3.95;;;;;;;19.87;31.81;95733.47;4924819;29;20352;-65
2023/06/07 06:33:45;;;;;;;8.82;3.70;;;;;;;19.97;31.55;95733.72;4924747;29;20031;-65
2023/06/07 06:36:11;;;;;;;5.18;3.75;;;;;;;20.12;29.24;95737.84;4925486;29;20028;-65
2023/06/07 06:38:36;;;;;;;6.78;3.90;;;;;;;20.20;30.70;95738.28;4925592;29;20558;-65
2023/06/07 06:41:02;;;;;;;5.20;3.60;;;;;;;20.42;30.97;95734.97;4923262;29;20414;-65
2023/06/07 06:43:27;;;;;;;7.85;4.07;;;;;;;20.53;31.09;95741.38;4924995;29;20032;-65
2023/06/07 06:45:52;;;;;;;6.18;3.83;;;;;;;20.68;30.59;95738.22;4925022;29;20105;-65
2023/06/07 06:48:18;;;;;;;9.30;4.40;;;;;;;20.60;30.67;95736.66;4920675;29;20110;-65
2023/06/07 06:50:46;;;;;;;7.90;4.05;;;;;;;20.76;30.64;95733.50;4925151;29;20207;-65
2023/06/07 06:53:12;;;;;;;6.97;4.00;;;;;;;20.88;29.81;95739.66;4925697;29;20074;-65
2023/06/07 06:55:37;;;;;;;9.25;4.40;;;;;;;20.77;31.02;95741.34;4924922;29;20442;-65
2023/06/07 06:58:03;;;;;;;6.30;4.18;;;;;;;21.18;29.72;95743.19;4925160;29;20039;-65
2023/06/07 07:00:29;;;;;;;6.55;3.70;;;;;;;21.21;29.53;95740.78;4923566;29;20039;-65
2023/06/07 07:02:54;;;;;;;15.15;4.00;;;;;;;20.81;31.09;95747.94;4925016;29;20031;-65
2023/06/07 07:05:21;;;;;;;7.85;3.85;;;;;;;20.91;29.41;95739.19;4924854;29;20431;-65
2023/06/07 07:07:46;;;;;;;5.27;3.90;;;;;;;21.19;27.84;95734.00;4923710;29;20047;-65
2023/06/07 07:10:12;;;;;;;7.82;4.22;;;;;;;21.22;26.72;95739.75;4924972;29;20032;-65
2023/06/07 07:12:40;;;;;;;5.55;4.22;;;;;;;21.42;28.05;95746.63;4923618;29;20524;-65
2023/06/07 07:15:05;;;;;;;9.18;4.53;;;;;;;21.71;28.87;95743.00;4923544;29;20146;-65
2023/06/07 07:17:31;;;;;;;9.18;4.40;;;;;;;21.36;29.56;95745.72;4923289;29;20176;-65
2023/06/07 07:19:56;;;;;;;8.15;4.40;;;;;;;21.61;27.65;95749.91;4924463;29;20547;-65
2023/06/07 07:22:22;;;;;;;8.15;4.10;;;;;;;21.81;27.64;95748.56;4924481;29;20051;-65
2023/06/07 07:24:47;;;;;;;6.97;4.20;;;;;;;21.75;28.72;95752.25;4924661;29;20042;-65
2023/06/07 07:27:13;;;;;;;6.95;4.50;;;;;;;21.95;28.53;95756.38;4923904;29;20035;-65
2023/06/07 07:29:38;;;;;;;8.98;4.60;;;;;;;21.93;26.49;95758.53;4924486;29;20098;-65
2023/06/07 07:32:04;;;;;;;7.90;4.55;;;;;;;21.88;28.29;95759.22;4924169;29;20040;-65
2023/06/07 07:34:30;;;;;;;6.55;5.07;;;;;;;21.88;25.57;95760.06;4923866;29;20055;-65
2023/06/07 07:36:57;;;;;;;8.75;5.63;;;;;;;21.69;26.23;95755.97;4923693;29;20054;-65
2023/06/07 07:39:24;;;;;;;10.00;5.10;;;;;;;22.09;26.58;95757.69;4924512;29;20039;-65
2023/06/07 07:41:49;;;;;;;11.02;4.40;;;;;;;22.36;27.64;95766.97;4924159;29;20110;-65
2023/06/07 07:44:15;;;;;;;13.38;5.50;;;;;;;22.11;25.62;95757.44;4923648;29;20133;-65
2023/06/07 07:46:40;;;;;;;10.05;6.00;;;;;;;22.33;25.56;95762.09;4922992;29;20527;-65
2023/06/07 07:49:06;;;;;;;10.20;6.40;;;;;;;22.26;25.39;95762.25;4924723;29;20027;-65
2023/06/07 07:51:31;;;;;;;8.02;4.93;;;;;;;22.83;27.40;95760.28;4924258;29;20039;-65
2023/06/07 07:53:56;;;;;;;10.45;5.70;;;;;;;22.93;26.11;95756.84;4923315;29;20039;-65
2023/06/07 07:56:22;;;;;;;8.98;4.20;;;;;;;23.08;27.84;95764.34;4922936;29;20296;-64
2023/06/07 07:58:48;;;;;;;8.80;4.35;;;;;;;23.63;27.02;95767.06;4923160;29;20074;-65
2023/06/07 08:01:16;;;;;;;10.23;5.47;;;;;;;23.39;27.45;95764.66;4924335;29;20023;-65
2023/06/07 08:03:42;;;;;;;8.93;4.43;;;;;;;23.65;26.84;95766.78;4923089;29;20526;-64
2023/06/07 08:06:07;;;;;;;9.95;6.65;;;;;;;23.21;24.63;95757.72;4924264;29;20038;-64
2023/06/07 08:08:33;;;;;;;10.20;6.22;;;;;;;23.16;25.32;95765.81;4923070;29;20051;-64
2023/06/07 08:11:00;;;;;;;11.05;5.65;;;;;;;23.27;26.28;95762.13;4922994;29;20039;-65
2023/06/07 08:13:25;;;;;;;9.40;5.88;;;;;;;23.50;26.93;95759.34;4922903;29;20043;-64
2023/06/07 08:15:51;;;;;;;6.63;4.20;;;;;;;23.78;26.49;95765.56;4923516;29;20028;-64
2023/06/07 08:18:17;;;;;;;8.80;5.78;;;;;;;23.92;24.92;95758.59;4922832;29;20484;-64
2023/06/07 08:20:42;;;;;;;10.55;5.53;;;;;;;24.11;24.23;95751.94;4923513;29;20040;-64
2023/06/07 08:23:08;;;;;;;11.85;5.72;;;;;;;24.24;24.96;95756.09;4922457;29;20043;-64
2023/06/07 08:25:33;;;;;;;10.25;5.30;;;;;;;24.16;26.27;95755.50;4923279;29;20047;-64
2023/06/07 08:27:58;;;;;;;8.93;4.70;;;;;;;23.94;26.12;95751.00;4923097;29;20043;-64
2023/06/07 08:30:24;;;;;;;6.45;4.93;;;;;;;24.21;26.16;95749.28;4923945;29;20439;-64
2023/06/07 08:32:50;;;;;;;11.05;5.00;;;;;;;24.55;24.09;95750.81;4923420;29;20091;-64
2023/06/07 08:35:15;;;;;;;8.50;4.00;;;;;;;24.71;23.55;95748.97;4923015;29;20513;-65
2023/06/07 08:37:41;;;;;;;9.13;5.80;;;;;;;24.98;23.80;95739.03;4923545;29;20765;-65
2023/06/07 08:40:09;;;;;;;9.95;5.90;;;;;;;25.31;23.28;95745.06;4922682;29;20110;-65
2023/06/07 08:42:35;;;;;;;9.00;5.80;;;;;;;25.22;22.91;95742.88;4922098;29;20036;-65
2023/06/07 08:45:00;;;;;;;11.97;7.63;;;;;;;25.27;23.11;95747.53;4923068;29;20035;-64
2023/06/07 08:47:27;;;;;;;12.80;6.50;;;;;;;25.75;22.28;95751.94;4922303;29;20082;-64
2023/06/07 08:49:54;;;;;;;9.35;7.50;;;;;;;25.69;22.88;95742.94;4922870;28;20032;-65
2023/06/07 08:52:20;;;;;;;7.07;4.50;;;;;;;26.41;22.97;95749.38;4918762;29;20553;-64
2023/06/07 08:54:46;;;;;;;7.97;5.60;;;;;;;26.62;22.36;95747.41;4910988;29;20137;-65
2023/06/07 08:57:14;;;;;;;12.97;7.43;;;;;;;26.19;21.50;95744.25;4909859;29;20028;-64
2023/06/07 08:59:41;;;;;;;8.07;4.70;;;;;;;26.62;22.98;95746.59;4922654;29;20039;-64
2023/06/07 09:02:07;;;;;;;7.95;5.47;;;;;;;26.46;22.50;95752.09;4922531;29;20281;-64
2023/06/07 09:04:34;;;;;;;7.53;5.77;;;;;;;26.47;21.37;95750.16;4922963;29;20519;-65
2023/06/07 09:07:03;;;;;;;8.05;6.25;;;;;;;26.28;22.83;95749.97;4922051;29;20040;-64
2023/06/07 09:09:29;;;;;;;8.88;5.88;;;;;;;26.32;22.48;95745.59;4912256;29;20578;-64
2023/06/07 09:11:54;;;;;;;9.37;5.93;;;;;;;25.93;23.57;95761.44;4922037;29;20036;-64
2023/06/07 09:14:21;;;;;;;8.30;5.50;;;;;;;26.07;22.18;95759.00;4923500;29;20039;-65
2023/06/07 09:16:54;;;;;;;9.75;5.63;;;;;;;25.52;23.04;95761.47;4922271;29;20053;-64
2023/06/07 09:19:32;;;;;;;13.25;6.68;;;;;;;25.42;22.65;95759.53;4922312;29;20047;-64
2023/06/07 09:21:57;;;;;;;8.60;4.30;;;;;;;25.63;24.62;95765.84;4922896;29;20126;-64
2023/06/07 09:24:30;;;;;;;8.00;4.97;;;;;;;25.58;24.49;95765.81;4922008;29;20152;-64
2023/06/07 09:26:56;;;;;;;7.65;6.13;;;;;;;25.36;22.94;95761.44;4921546;29;20051;-65
2023/06/07 09:29:21;;;;;;;7.37;5.30;;;;;;;25.24;23.21;95761.66;4922977;29;20044;-64
2023/06/07 09:31:46;;;;;;;7.50;4.77;;;;;;;25.34;24.28;95764.41;4922876;29;20035;-64
2023/06/07 09:34:18;;;;;;;9.43;5.80;;;;;;;25.21;24.22;95760.31;4922955;29;20046;-64
2023/06/07 09:36:54;;;;;;;7.25;4.72;;;;;;;25.02;23.76;95768.16;4922702;29;20038;-65
2023/06/07 09:39:21;;;;;;;8.85;4.88;;;;;;;24.88;24.00;95764.28;4922313;29;20054;-65
2023/06/07 09:41:46;;;;;;;7.38;4.20;;;;;;;24.88;24.81;95765.09;4923068;29;20035;-64
2023/06/07 09:44:20;;;;;;;11.90;4.93;;;;;;;24.32;25.89;95771.91;4922403;29;20036;-65
2023/06/07 09:46:45;;;;;;;7.85;4.85;;;;;;;24.20;26.34;95766.66;4922271;29;20036;-65
2023/06/07 09:49:11;;;;;;;6.18;4.47;;;;;;;24.29;24.56;95772.41;4923717;29;20027;-65
2023/06/07 09:51:42;;;;;;;8.85;4.55;;;;;;;23.98;26.34;95766.78;4921361;29;20046;-65
2023/06/07 09:54:09;;;;;;;6.95;4.40;;;;;;;24.24;26.26;95766.97;4917337;29;20297;-65
2023/06/07 09:56:38;;;;;;;7.35;4.85;;;;;;;24.17;25.46;95768.00;4921246;29;20039;-65
2023/06/07 09:59:08;;;;;;;6.57;4.93;;;;;;;24.25;25.88;95765.88;4909550;29;20114;-65
2023/06/07 10:01:34;;;;;;;9.52;4.80;;;;;;;24.16;24.88;95766.38;4922335;29;20028;-64
2023/06/07 10:04:01;;;;;;;6.47;4.43;;;;;;;24.07;26.15;95760.59;4922874;29;20067;-65
2023/06/07 10:06:26;;;;;;;8.20;4.07;;;;;;;24.29;25.98;95766.97;4918800;29;20046;-65
2023/06/07 10:08:52;;;;;;;7.88;4.38;;;;;;;24.42;24.60;95763.84;4922575;29;20033;-65
2023/06/07 10:11:17;;;;;;;7.78;4.45;;;;;;;24.51;25.38;95764.13;4908179;29;20410;-65
2023/06/07 10:13:42;;;;;;;7.13;4.40;;;;;;;24.65;25.39;95771.81;4913588;29;20103;-65
2023/06/07 10:16:10;;;;;;;7.63;4.40;;;;;;;24.89;24.58;95768.63;4911384;29;20101;-65
2023/06/07 10:18:35;;;;;;;9.05;4.63;;;;;;;24.73;24.00;95763.13;4909003;29;20131;-65
2023/06/07 10:21:01;;;;;;;9.20;4.03;;;;;;;25.07;24.61;95756.47;4915925;29;20039;-65
2023/06/07 10:23:34;;;;;;;8.50;5.10;;;;;;;24.94;24.07;95753.16;4916306;29;20032;-65
2023/06/07 10:26:04;;;;;;;8.70;5.00;;;;;;;24.87;23.44;95758.00;4925268;29;20032;-65
2023/06/07 10:28:39;;;;;;;7.75;3.92;;;;;;;25.22;23.26;95753.78;4925055;29;20075;-65
2023/06/07 10:31:08;;;;;;;6.03;3.95;;;;;;;25.65;22.98;95747.28;4924980;29;20036;-65
2023/06/07 10:33:33;;;;;;;4.95;3.60;;;;;;;25.93;24.22;95747.81;4925541;29;20039;-65
2023/06/07 10:35:59;;;;;;;6.17;4.17;;;;;;;25.79;24.32;95746.72;4925616;29;20059;-65
2023/06/07 10:38:25;;;;;;;6.27;3.87;;;;;;;26.50;23.30;95744.97;4926113;29;20048;-65
2023/06/07 10:40:51;;;;;;;7.05;4.18;;;;;;;26.50;23.26;95746.88;4911665;29;20059;-65
2023/06/07 10:43:17;;;;;;;8.47;4.93;;;;;;;26.66;21.85;95744.94;4923808;29;20103;-65
2023/06/07 10:45:42;;;;;;;7.90;6.23;;;;;;;26.42;22.44;95750.19;4917858;29;20324;-62
2023/06/07 10:48:33;;;;;;;6.93;5.00;;;;;;;26.58;22.90;95748.28;4925719;29;20040;-65
2023/06/07 10:50:59;;;;;;;9.38;5.75;;;;;;;26.42;23.94;95745.56;4925305;29;20115;-65
2023/06/07 10:53:24;;;;;;;10.20;5.60;;;;;;;26.31;24.49;95749.41;4925397;29;20542;-65
2023/06/07 10:55:50;;;;;;;10.40;5.83;;;;;;;26.49;23.20;95746.09;4924561;29;20522;-65
2023/06/07 10:58:29;;;;;;;13.27;5.20;;;;;;;25.99;23.12;95740.44;4916070;29;20402;-65
2023/06/07 11:00:55;;;;;;;11.88;5.40;;;;;;;26.23;23.02;95739.88;4926916;29;20051;-65
2023/06/07 11:03:23;;;;;;;5.73;4.37;;;;;;;26.09;24.33;95747.81;4927868;29;20103;-65
2023/06/07 11:05:58;;;;;;;8.40;5.15;;;;;;;26.62;22.70;95743.88;4923951;29;20027;-65
2023/06/07 11:08:30;;;;;;;7.10;4.72;;;;;;;26.39;23.23;95740.66;4925883;29;20040;-65
2023/06/07 11:11:01;;;;;;;8.90;5.22;;;;;;;26.33;23.87;95739.84;4925428;29;20039;-65
2023/06/07 11:13:26;;;;;;;10.13;5.55;;;;;;;26.74;23.27;95743.53;4924773;29;20036;-65
2023/06/07 11:15:52;;;;;;;10.37;6.47;;;;;;;26.76;22.01;95746.81;4924148;29;20345;-64
2023/06/07 11:18:17;;;;;;;7.87;5.00;;;;;;;26.85;22.05;95742.41;4915758;29;20047;-65
2023/06/07 11:20:44;;;;;;;10.50;7.40;;;;;;;27.04;22.19;95747.22;4924874;29;20052;-65
2023/06/07 11:23:26;;;;;;;8.02;5.25;;;;;;;27.20;22.95;95745.25;4924570;29;20446;-65
2023/06/07 11:25:54;;;;;;;10.98;6.78;;;;;;;26.95;22.43;95743.44;4923820;29;20122;-66
2023/06/07 11:28:23;;;;;;;19.60;6.65;;;;;;;27.37;22.11;95741.28;4925322;29;20046;-66
2023/06/07 11:30:49;;;;;;;6.38;3.80;;;;;;;27.21;22.86;95744.13;4908303;29;20040;-65